Latest Coastal Weather Observations for Cape Borda

IDS60701

Issued at 1:51 pm CST Friday 28 April 2017 (issued every 10 minutes, with the page automatically refreshed every 10 minutes)

About coastal observations | Map of coastal stations | Coastal observations for SA | Marine services | Other Formats
Station Details ID: 022823 Name: CAPE BORDA Lat: -35.75 Lon: 136.60 Height: 158.0 m
Data from the previous 72 hours. | See also: Recent months at Cape Borda
Date/Time
CST
Temp
°C
Wind Pressure Rain since
9am
mm
Weather Cloud Vis
km
Sea
Height
m
Swell
Dir  Spd
kts
Gust
kts
hPa Trend Height
m
Period
s
Dir
28/01:30pm 16.6 WSW 10 13 1027.0 - 0.0 - - - - - - -
28/01:00pm 17.0 WSW 12 16 1027.3 - 0.0 - - - - - - -
28/12:30pm 17.1 WSW 12 17 1027.7 - 0.0 - - - - - - -
28/12:00pm 17.0 WSW 9 13 1027.9 - 0.0 - - - - - - -
28/11:30am 16.8 WSW 11 15 1028.3 - 0.0 - - - - - - -
28/11:00am 15.6 SSW 7 10 1028.6 - 0.0 - - - - - - -
28/10:30am 14.8 WSW 12 15 1028.7 - 0.0 - - - - - - -
28/10:00am 14.7 SSW 9 12 1028.5 - 0.0 - - - - - - -
28/09:30am 14.0 SW 12 16 1028.6 - 0.0 - - - - - - -
28/09:00am 14.5 SW 10 14 1028.2 S 1.8 Distant precip. Mostly cloudy 20 1 4.7 8 SW
28/08:30am 14.3 WSW 10 14 1028.1 - 1.8 - - - - - - -
28/08:00am 14.5 W 10 14 1027.9 - 1.8 - - - - - - -
28/07:30am 14.4 W 10 14 1027.5 - 1.8 - - - - - - -
28/07:00am 14.6 W 8 11 1027.3 - 1.8 - - - - - - -
28/06:30am 14.5 WSW 8 15 1027.2 - 1.8 - - - - - - -
28/06:00am 14.5 WSW 8 13 1027.1 - 1.8 - - - - - - -
28/05:30am 14.7 WSW 6 14 1027.0 - 1.8 - - - - - - -
28/05:00am 14.7 WSW 8 12 1026.8 - 1.8 - - - - - - -
28/04:30am 14.6 SW 9 11 1026.7 - 1.8 - - - - - - -
28/04:00am 14.4 SW 7 9 1026.6 - 1.8 - - - - - - -
28/03:30am 14.4 WSW 8 12 1026.7 - 1.8 - - - - - - -
28/03:00am 14.4 WSW 8 13 1026.7 - 1.8 - - - - - - -
28/02:30am 14.1 SW 6 11 1026.9 - 1.8 - - - - - - -
28/02:00am 13.7 WSW 3 4 1026.9 - 1.8 - - - - - - -
28/01:30am 13.5 SSW 3 5 1027.0 - 1.8 - - - - - - -
28/01:00am 13.7 WSW 8 11 1027.1 - 1.8 - - - - - - -
28/12:30am 13.7 SW 10 13 1027.2 - 1.8 - - - - - - -
28/12:00am 13.5 S 7 11 1027.2 - 1.8 - - - - - - -
 
Date/Time
CST
Temp
°C
Wind Pressure Rain since
9am
mm
Weather Cloud Vis
km
Sea
Height
m
Swell
Dir  Spd
kts
Gust
kts
hPa Trend Height
m
Period
s
Dir
27/11:30pm 13.4 SW 8 12 1027.5 - 1.8 - - - - - - -
27/11:00pm 13.2 SW 7 9 1027.8 - 1.8 - - - - - - -
27/10:30pm 13.1 SSW 6 8 1027.7 - 1.8 - - - - - - -
27/10:00pm 13.1 SSW 6 9 1027.7 - 1.8 - - - - - - -
27/09:30pm 12.7 S 5 6 1027.8 - 1.8 - - - - - - -
27/09:00pm 13.2 SSW 7 9 1027.6 - 1.8 - - - - - - -
27/08:30pm 13.1 WSW 8 11 1027.6 - 1.8 - - - - - - -
27/08:00pm 13.2 SSW 5 8 1027.6 - 1.8 - - - - - - -
27/07:30pm 13.0 SSW 5 8 1027.3 - 1.8 - - - - - - -
27/07:00pm 13.1 SW 7 11 1027.2 - 1.0 - - - - - - -
27/06:30pm 14.3 WSW 10 17 1027.1 - 0.8 - - - - - - -
27/06:00pm 13.5 SW 8 11 1026.7 - 0.8 - - - - - - -
27/05:30pm 13.7 SW 8 13 1026.8 - 0.8 - - - - - - -
27/05:00pm 13.6 SSW 5 7 1026.9 - 0.8 - - - - - - -
27/04:30pm 13.1 SW 6 11 1027.0 - 0.8 - - - - - - -
27/04:00pm 15.0 SW 12 16 1026.9 - 0.8 - - - - - - -
27/03:30pm 15.5 SW 10 14 1026.7 - 0.8 - - - - - - -
27/03:00pm 15.5 WSW 12 15 1026.6 S 0.8 Fine Mostly cloudy 25 1 4.5 8 SW
27/02:30pm 15.0 WSW 11 15 1026.7 - 0.8 - - - - - - -
27/02:00pm 14.9 WSW 10 12 1026.8 - 0.8 - - - - - - -
27/01:30pm 13.2 SSW 9 11 1027.0 - 0.8 - - - - - - -
27/01:00pm 14.2 SW 9 13 1027.1 - 0.2 - - - - - - -
27/12:30pm 15.5 WSW 9 12 1027.6 - 0.2 - - - - - - -
27/12:00pm 14.8 WSW 11 14 1028.0 - 0.2 - - - - - - -
27/11:30am 16.0 WSW 12 17 1028.5 - 0.0 - - - - - - -
27/11:00am 13.9 SW 8 11 1028.7 - 0.0 - - - - - - -
27/10:30am 12.7 S 9 12 1028.9 - 0.0 - - - - - - -
27/10:00am 13.0 SW 9 15 1029.0 - 0.0 - - - - - - -
27/09:30am 14.0 SSW 9 13 1029.1 - 0.0 - - - - - - -
27/09:00am 13.7 SW 9 15 1028.9 R 0.0 Fine Mostly cloudy 20 1 4.9 9 SW
27/08:30am 12.8 SW 9 12 1028.7 - 0.0 - - - - - - -
27/08:00am 12.5 SSW 5 7 1028.2 - 0.0 - - - - - - -
27/07:30am 11.0 SSW 5 7 1027.7 - 0.0 - - - - - - -
27/07:00am 10.9 SE 5 5 1027.5 - 0.0 - - - - - - -
27/06:30am 11.6 SSW 9 13 1027.5 - 0.0 - - - - - - -
27/06:00am 12.0 SW 8 11 1027.2 - 0.0 - - - - - - -
27/05:30am 12.0 SSW 7 9 1027.0 - 0.0 - - - - - - -
27/05:00am 11.8 SSW 7 9 1026.7 - 0.0 - - - - - - -
27/04:30am 11.5 SW 10 13 1026.3 - 0.0 - - - - - - -
27/04:00am 9.8 S 5 6 1026.2 - 0.0 - - - - - - -
27/03:30am 9.1 S 6 7 1026.4 - 0.0 - - - - - - -
27/03:00am 8.8 SE 7 8 1026.3 - 0.0 - - - - - - -
27/02:30am 9.5 SSE 7 7 1026.8 - 0.0 - - - - - - -
27/02:00am 9.9 SSE 9 11 1026.8 - 0.0 - - - - - - -
27/01:30am 9.3 SSE 8 9 1026.7 - 0.0 - - - - - - -
27/01:00am 9.6 SE 8 11 1026.7 - 0.0 - - - - - - -
27/12:30am 10.3 S 10 14 1026.7 - 0.0 - - - - - - -
27/12:00am 9.6 SSE 6 7 1026.3 - 0.0 - - - - - - -
 
Date/Time
CST
Temp
°C
Wind Pressure Rain since
9am
mm
Weather Cloud Vis
km
Sea
Height
m
Swell
Dir  Spd
kts
Gust
kts
hPa Trend Height
m
Period
s
Dir
26/11:30pm 10.0 SSE 7 7 1026.4 - 0.0 - - - - - - -
26/11:00pm 10.4 SSE 6 7 1026.3 - 0.0 - - - - - - -
26/10:30pm 10.6 SSE 7 9 1026.3 - 0.0 - - - - - - -
26/10:00pm 10.9 S 8 11 1026.5 - 0.0 - - - - - - -
26/09:30pm 10.7 S 5 6 1026.3 - 0.0 - - - - - - -
26/09:00pm 10.6 S 7 8 1026.1 - 0.0 - - - - - - -
26/08:30pm 10.3 S 7 9 1026.0 - 0.0 - - - - - - -
26/08:00pm 10.5 S 8 10 1025.9 - 0.0 - - - - - - -
26/07:30pm 10.3 S 9 11 1025.6 - 0.0 - - - - - - -
26/07:00pm 10.7 S 10 13 1025.3 - 0.0 - - - - - - -
26/06:30pm 11.4 SSW 11 14 1025.0 - 0.0 - - - - - - -
26/06:00pm 11.9 SSW 11 16 1024.7 - 0.0 - - - - - - -
26/05:30pm 12.2 S 13 18 1024.7 - 0.0 - - - - - - -
26/05:00pm 12.0 SSW 10 15 1024.6 - 0.0 - - - - - - -
26/04:30pm 12.2 S 11 17 1024.5 - 0.0 - - - - - - -
26/04:00pm 12.7 SSW 10 16 1024.3 - 0.0 - - - - - - -
26/03:30pm 13.1 S 11 15 1024.2 - 0.0 - - - - - - -
26/03:00pm 12.5 S 12 16 1023.7 R 0.0 Fine Mostly cloudy 18 1 6.8 8 SW
26/02:30pm 13.4 SSW 14 19 1023.7 - 0.0 - - - - - - -
26/02:00pm 12.4 S 10 14 1023.7 - 0.0 - - - - - - -
26/01:30pm 12.8 S 12 19 1023.6 - 0.0 - - - - - - -
26/01:00pm 13.3 S 12 18 1023.6 - 0.0 - - - - - - -
26/12:30pm 11.9 SSE 13 19 1023.7 - 0.0 - - - - - - -
26/12:27pm 11.7 S 15 25 1023.8 - 0.0 - - - - - - -
26/12:00pm 11.9 S 13 19 1023.6 - 0.0 - - - - - - -
26/11:30am 12.1 S 13 18 1023.7 - 0.0 - - - - - - -
26/11:00am 12.3 SSE 12 18 1023.5 - 0.0 - - - - - - -
26/10:30am 12.3 S 15 21 1023.1 - 0.0 - - - - - - -
26/10:00am 12.2 S 13 17 1022.9 - 0.0 - - - - - - -
26/09:30am 12.7 S 15 22 1022.5 - 0.0 - - - - - - -
26/09:10am 11.1 S 15 25 1022.4 - 0.0 - - - - - - -
26/09:00am 11.7 S 12 16 1022.1 R 6.8 Fine Mostly cloudy 15 2 7.8 8 SW
26/08:30am 10.8 S 15 24 1022.0 - 6.8 - - - - - - -
26/08:20am 10.7 S 17 27 1021.8 - 6.8 - - - - - - -
26/08:00am 10.8 S 13 19 1021.5 - 6.8 - - - - - - -
26/07:30am 10.7 S 15 23 1021.0 - 6.8 - - - - - - -
26/07:00am 9.7 S 15 20 1020.4 - 6.8 - - - - - - -
26/06:35am 10.3 S 16 26 1019.9 - 6.8 - - - - - - -
26/06:30am 10.2 S 16 23 1019.9 - 6.8 - - - - - - -
26/06:11am 10.4 S 16 27 1019.6 - 6.8 - - - - - - -
26/06:00am 9.8 S 16 24 1019.2 - 6.8 - - - - - - -
26/05:35am 10.6 S 17 29 1018.6 - 6.8 - - - - - - -
26/05:30am 10.3 S 16 23 1018.7 - 6.8 - - - - - - -
26/05:07am 10.3 S 19 29 1018.3 - 6.8 - - - - - - -
26/05:00am 10.5 S 17 25 1018.2 - 6.8 - - - - - - -
26/04:37am 10.8 S 20 30 1017.9 - 6.8 - - - - - - -
26/04:30am 10.8 SSW 20 29 1017.8 - 6.8 - - - - - - -
26/04:00am 10.6 SSW 19 29 1017.3 - 6.8 - - - - - - -
26/03:30am 10.5 S 23 34 1016.9 - 6.8 - - - - - - -
26/03:00am 10.7 SSW 23 33 1016.7 - 6.8 - - - - - - -
26/02:30am 10.4 SSW 24 39 1016.1 - 6.8 - - - - - - -
26/02:00am 10.5 SSW 23 34 1016.1 - 6.8 - - - - - - -
26/01:30am 11.0 SSW 25 36 1015.4 - 6.8 - - - - - - -
26/01:00am 10.1 SSW 25 35 1015.3 - 6.8 - - - - - - -
26/12:46am 11.1 SW 22 33 1015.2 - 6.6 - - - - - - -
26/12:37am 11.0 S 22 32 1015.0 - 6.6 - - - - - - -
26/12:30am 11.2 SSW 22 31 1015.0 - 6.6 - - - - - - -
26/12:00am 11.7 SSW 26 40 1014.7 - 6.6 - - - - - - -
 
Date/Time
CST
Temp
°C
Wind Pressure Rain since
9am
mm
Weather Cloud Vis
km
Sea
Height
m
Swell
Dir  Spd
kts
Gust
kts
hPa Trend Height
m
Period
s
Dir
25/11:33pm 12.4 SW 23 33 1014.7 - 6.6 - - - - - - -
25/11:30pm 12.5 SW 24 33 1014.5 - 6.6 - - - - - - -
25/11:00pm 12.9 SSW 22 32 1014.3 - 6.6 - - - - - - -
25/10:30pm 12.6 SSW 25 35 1014.4 - 6.6 - - - - - - -
25/10:00pm 12.5 SSW 23 33 1014.2 - 6.6 - - - - - - -
25/09:30pm 13.1 SSW 23 33 1013.9 - 6.6 - - - - - - -
25/09:02pm 13.1 SSW 22 32 1013.5 - 6.6 - - - - - - -
25/09:00pm 13.0 SSW 23 32 1013.3 - 6.6 - - - - - - -
25/08:30pm 12.3 SSW 23 39 1013.1 - 6.6 - - - - - - -
25/08:03pm 12.4 SSW 20 35 1012.6 - 6.4 - - - - - - -
25/08:00pm 12.7 SSW 19 28 1012.7 - 6.2 - - - - - - -
25/07:50pm 12.9 SSW 22 32 1012.5 - 6.0 - - - - - - -
25/07:45pm 13.3 SSW 22 27 1012.5 - 5.8 - - - - - - -
25/07:43pm 13.5 WSW 19 30 1012.5 - 5.8 - - - - - - -
25/07:30pm 13.6 WSW 18 27 1012.5 - 5.2 - - - - - - -
25/07:00pm 15.1 W 20 32 1012.2 - 4.4 - - - - - - -
25/06:58pm 15.1 W 19 32 1012.2 - 4.4 - - - - - - -
25/06:30pm 14.3 W 16 23 1012.3 - 4.4 - - - - - - -
25/06:00pm 13.7 W 22 33 1012.2 - 4.4 - - - - - - -
25/05:54pm 15.2 W 17 27 1012.1 - 4.4 - - - - - - -
25/05:30pm 14.9 W 16 24 1012.1 - 4.4 - - - - - - -
25/05:00pm 15.0 WSW 16 26 1012.1 - 4.4 - - - - - - -
25/04:30pm 15.1 WSW 17 23 1011.9 - 4.4 - - - - - - -
25/04:00pm 15.2 WSW 17 24 1012.0 - 4.4 - - - - - - -
25/03:30pm 16.0 WSW 18 28 1012.0 - 4.2 - - - - - - -
25/03:15pm 15.5 WSW 18 28 1012.0 - 4.2 - - - - - - -
25/03:00pm 15.5 WSW 19 25 1011.9 F 4.2 Distant precip. Mostly cloudy 15 2 3.2 6 SW
25/02:30pm 14.7 WSW 14 22 1012.1 - 4.2 - - - - - - -
25/02:00pm 16.0 WSW 13 19 1012.2 - 3.8 - - - - - - -

Other Formats:

Comma delimited format used in spreadsheet applications
http://www.bom.gov.au/fwo/IDS60701/IDS60701.95805.axf

JavaScript Object Notation format (JSON) in row-major order
http://www.bom.gov.au/fwo/IDS60701/IDS60701.95805.json